sensor_id;sensor_type;location;lat;lon;timestamp;pressure;altitude;pressure_sealevel;temperature;humidity
62725;BME280;49026;52.600;4.694;2023-07-29T00:01:46;100689.56;;;16.64;81.24
62725;BME280;49026;52.600;4.694;2023-07-29T00:04:11;100682.44;;;16.64;81.22
62725;BME280;49026;52.600;4.694;2023-07-29T00:06:37;100688.38;;;16.68;81.34
62725;BME280;49026;52.600;4.694;2023-07-29T00:09:02;100682.78;;;16.73;81.28
62725;BME280;49026;52.600;4.694;2023-07-29T00:11:28;100678.22;;;16.75;81.32
62725;BME280;49026;52.600;4.694;2023-07-29T00:13:53;100685.22;;;16.76;80.71
62725;BME280;49026;52.600;4.694;2023-07-29T00:16:19;100680.84;;;16.75;81.07
62725;BME280;49026;52.600;4.694;2023-07-29T00:18:47;100679.91;;;16.76;81.01
62725;BME280;49026;52.600;4.694;2023-07-29T00:21:13;100671.97;;;16.76;81.04
62725;BME280;49026;52.600;4.694;2023-07-29T00:23:38;100680.75;;;16.76;81.23
62725;BME280;49026;52.600;4.694;2023-07-29T00:26:03;100671.84;;;16.77;81.06
62725;BME280;49026;52.600;4.694;2023-07-29T00:28:29;100666.41;;;16.79;81.05
62725;BME280;49026;52.600;4.694;2023-07-29T00:30:57;100673.63;;;16.77;80.77
62725;BME280;49026;52.600;4.694;2023-07-29T00:33:22;100665.97;;;16.72;80.79
62725;BME280;49026;52.600;4.694;2023-07-29T00:35:48;100660.03;;;16.68;80.84
62725;BME280;49026;52.600;4.694;2023-07-29T00:38:13;100662.50;;;16.72;80.83
62725;BME280;49026;52.600;4.694;2023-07-29T00:40:38;100656.97;;;16.75;81.02
62725;BME280;49026;52.600;4.694;2023-07-29T00:43:04;100659.53;;;16.76;80.70
62725;BME280;49026;52.600;4.694;2023-07-29T00:45:30;100655.94;;;16.77;80.90
62725;BME280;49026;52.600;4.694;2023-07-29T00:47:57;100662.06;;;16.78;81.05
62725;BME280;49026;52.600;4.694;2023-07-29T00:50:24;100662.91;;;16.78;80.99
62725;BME280;49026;52.600;4.694;2023-07-29T00:52:52;100660.38;;;16.77;80.98
62725;BME280;49026;52.600;4.694;2023-07-29T00:55:20;100657.72;;;16.77;80.71
62725;BME280;49026;52.600;4.694;2023-07-29T00:57:46;100659.31;;;16.79;80.90
62725;BME280;49026;52.600;4.694;2023-07-29T01:00:14;100652.19;;;16.80;80.79
62725;BME280;49026;52.600;4.694;2023-07-29T01:02:39;100655.59;;;16.82;80.72
62725;BME280;49026;52.600;4.694;2023-07-29T01:05:08;100644.97;;;16.82;80.90
62725;BME280;49026;52.600;4.694;2023-07-29T01:08:10;100641.31;;;16.84;80.65
62725;BME280;49026;52.600;4.694;2023-07-29T01:14:14;100636.41;;;16.91;80.59
62725;BME280;49026;52.600;4.694;2023-07-29T01:16:50;100631.00;;;16.93;80.43
62725;BME280;49026;52.600;4.694;2023-07-29T01:21:58;100628.25;;;16.94;80.35
62725;BME280;49026;52.600;4.694;2023-07-29T01:24:23;100630.78;;;16.96;80.30
62725;BME280;49026;52.600;4.694;2023-07-29T01:26:48;100626.44;;;16.95;80.41
62725;BME280;49026;52.600;4.694;2023-07-29T01:29:14;100629.09;;;16.95;80.52
62725;BME280;49026;52.600;4.694;2023-07-29T01:31:46;100630.91;;;16.94;80.63
62725;BME280;49026;52.600;4.694;2023-07-29T01:34:29;100633.56;;;16.94;80.57
62725;BME280;49026;52.600;4.694;2023-07-29T01:36:57;100629.94;;;16.95;80.63
62725;BME280;49026;52.600;4.694;2023-07-29T01:39:26;100634.50;;;16.93;80.77
62725;BME280;49026;52.600;4.694;2023-07-29T01:41:54;100626.63;;;16.92;80.78
62725;BME280;49026;52.600;4.694;2023-07-29T01:44:19;100631.00;;;16.93;80.97
62725;BME280;49026;52.600;4.694;2023-07-29T01:46:48;100629.09;;;16.95;81.16
62725;BME280;49026;52.600;4.694;2023-07-29T01:49:15;100637.69;;;16.98;80.81
62725;BME280;49026;52.600;4.694;2023-07-29T01:51:40;100625.38;;;16.97;80.74
62725;BME280;49026;52.600;4.694;2023-07-29T01:54:05;100624.50;;;16.97;80.97
62725;BME280;49026;52.600;4.694;2023-07-29T01:56:31;100625.59;;;16.94;80.84
62725;BME280;49026;52.600;4.694;2023-07-29T01:58:58;100627.47;;;16.92;80.31
62725;BME280;49026;52.600;4.694;2023-07-29T02:01:24;100614.44;;;16.89;81.01
62725;BME280;49026;52.600;4.694;2023-07-29T02:03:49;100613.03;;;16.83;80.91
62725;BME280;49026;52.600;4.694;2023-07-29T02:06:20;100612.41;;;16.80;81.03
62725;BME280;49026;52.600;4.694;2023-07-29T02:08:47;100618.78;;;16.77;81.04
62725;BME280;49026;52.600;4.694;2023-07-29T02:11:13;100612.81;;;16.74;81.14
62725;BME280;49026;52.600;4.694;2023-07-29T02:13:38;100605.84;;;16.73;81.09
62725;BME280;49026;52.600;4.694;2023-07-29T02:16:04;100605.09;;;16.71;81.37
62725;BME280;49026;52.600;4.694;2023-07-29T02:18:29;100601.88;;;16.65;81.20
62725;BME280;49026;52.600;4.694;2023-07-29T02:20:54;100611.97;;;16.60;81.34
62725;BME280;49026;52.600;4.694;2023-07-29T02:23:22;100601.69;;;16.56;81.42
62725;BME280;49026;52.600;4.694;2023-07-29T02:25:48;100605.19;;;16.56;81.40
62725;BME280;49026;52.600;4.694;2023-07-29T02:28:15;100605.19;;;16.56;81.39
62725;BME280;49026;52.600;4.694;2023-07-29T02:30:41;100605.19;;;16.56;81.45
62725;BME280;49026;52.600;4.694;2023-07-29T02:33:09;100610.28;;;16.59;81.58
62725;BME280;49026;52.600;4.694;2023-07-29T02:35:37;100602.03;;;16.64;81.53
62725;BME280;49026;52.600;4.694;2023-07-29T02:38:02;100606.88;;;16.70;81.88
62725;BME280;49026;52.600;4.694;2023-07-29T02:40:27;100604.75;;;16.75;81.83
62725;BME280;49026;52.600;4.694;2023-07-29T02:42:56;100608.28;;;16.76;82.05
62725;BME280;49026;52.600;4.694;2023-07-29T02:45:24;100602.00;;;16.77;82.14
62725;BME280;49026;52.600;4.694;2023-07-29T02:47:49;100596.59;;;16.78;81.95
62725;BME280;49026;52.600;4.694;2023-07-29T02:50:17;100597.41;;;16.79;81.86
62725;BME280;49026;52.600;4.694;2023-07-29T02:52:43;100586.94;;;16.77;82.17
62725;BME280;49026;52.600;4.694;2023-07-29T02:55:08;100578.00;;;16.78;82.21
62725;BME280;49026;52.600;4.694;2023-07-29T02:57:36;100583.22;;;16.80;82.14
62725;BME280;49026;52.600;4.694;2023-07-29T03:00:02;100586.69;;;16.80;82.28
62725;BME280;49026;52.600;4.694;2023-07-29T03:02:30;100581.41;;;16.80;82.21
62725;BME280;49026;52.600;4.694;2023-07-29T03:04:57;100576.09;;;16.80;82.10
62725;BME280;49026;52.600;4.694;2023-07-29T03:07:23;100570.06;;;16.78;82.23
62725;BME280;49026;52.600;4.694;2023-07-29T03:09:51;100580.97;;;16.74;82.17
62725;BME280;49026;52.600;4.694;2023-07-29T03:12:16;100571.44;;;16.71;82.40
62725;BME280;49026;52.600;4.694;2023-07-29T03:14:42;100571.44;;;16.71;82.12
62725;BME280;49026;52.600;4.694;2023-07-29T03:17:07;100575.03;;;16.70;82.33
62725;BME280;49026;52.600;4.694;2023-07-29T03:19:32;100571.56;;;16.70;82.09
62725;BME280;49026;52.600;4.694;2023-07-29T03:21:58;100571.88;;;16.65;82.31
62725;BME280;49026;52.600;4.694;2023-07-29T03:24:23;100574.53;;;16.65;82.46
62725;BME280;49026;52.600;4.694;2023-07-29T03:26:48;100570.06;;;16.65;82.41
62725;BME280;49026;52.600;4.694;2023-07-29T03:29:14;100573.56;;;16.66;82.52
62725;BME280;49026;52.600;4.694;2023-07-29T03:31:39;100579.94;;;16.63;82.31
62725;BME280;49026;52.600;4.694;2023-07-29T03:34:07;100564.22;;;16.60;82.57
62725;BME280;49026;52.600;4.694;2023-07-29T03:36:32;100562.53;;;16.59;82.56
62725;BME280;49026;52.600;4.694;2023-07-29T03:38:58;100569.53;;;16.60;82.64
62725;BME280;49026;52.600;4.694;2023-07-29T03:41:23;100565.31;;;16.58;82.56
62725;BME280;49026;52.600;4.694;2023-07-29T03:43:48;100569.78;;;16.57;82.66
62725;BME280;49026;52.600;4.694;2023-07-29T03:46:14;100573.38;;;16.56;82.74
62725;BME280;49026;52.600;4.694;2023-07-29T03:48:43;100572.53;;;16.56;82.52
62725;BME280;49026;52.600;4.694;2023-07-29T03:51:08;100568.91;;;16.57;82.90
62725;BME280;49026;52.600;4.694;2023-07-29T03:53:33;100572.28;;;16.59;82.67
62725;BME280;49026;52.600;4.694;2023-07-29T03:55:59;100573.78;;;16.63;82.86
62725;BME280;49026;52.600;4.694;2023-07-29T03:58:24;100572.72;;;16.65;82.83
62725;BME280;49026;52.600;4.694;2023-07-29T04:00:49;100575.16;;;16.68;83.07
62725;BME280;49026;52.600;4.694;2023-07-29T04:03:15;100569.41;;;16.75;83.35
62725;BME280;49026;52.600;4.694;2023-07-29T04:05:40;100570.78;;;16.80;83.28
62725;BME280;49026;52.600;4.694;2023-07-29T04:08:06;100570.38;;;16.87;83.38
62725;BME280;49026;52.600;4.694;2023-07-29T04:10:34;100585.03;;;16.92;83.51
62725;BME280;49026;52.600;4.694;2023-07-29T04:13:03;100585.56;;;16.97;83.53
62725;BME280;49026;52.600;4.694;2023-07-29T04:15:28;100582.66;;;17.00;83.73
62725;BME280;49026;52.600;4.694;2023-07-29T04:17:54;100585.84;;;17.06;83.73
62725;BME280;49026;52.600;4.694;2023-07-29T04:20:20;100594.56;;;17.08;83.70
62725;BME280;49026;52.600;4.694;2023-07-29T04:22:45;100583.75;;;17.11;83.90
62725;BME280;49026;52.600;4.694;2023-07-29T04:25:10;100585.19;;;17.15;84.03
62725;BME280;49026;52.600;4.694;2023-07-29T04:27:37;100579.78;;;17.16;83.88
62725;BME280;49026;52.600;4.694;2023-07-29T04:30:02;100588.59;;;17.17;84.09
62725;BME280;49026;52.600;4.694;2023-07-29T04:32:27;100589.22;;;17.20;84.00
62725;BME280;49026;52.600;4.694;2023-07-29T04:34:53;100578.47;;;17.22;84.06
62725;BME280;49026;52.600;4.694;2023-07-29T04:37:18;100590.91;;;17.21;84.16
62725;BME280;49026;52.600;4.694;2023-07-29T04:39:44;100588.16;;;17.23;83.97
62725;BME280;49026;52.600;4.694;2023-07-29T04:42:11;100584.66;;;17.22;84.01
62725;BME280;49026;52.600;4.694;2023-07-29T04:44:36;100583.78;;;17.22;83.77
62725;BME280;49026;52.600;4.694;2023-07-29T04:47:05;100591.75;;;17.22;84.07
62725;BME280;49026;52.600;4.694;2023-07-29T04:49:30;100593.47;;;17.23;83.92
62725;BME280;49026;52.600;4.694;2023-07-29T04:51:55;100589.72;;;17.26;83.90
62725;BME280;49026;52.600;4.694;2023-07-29T04:54:21;100590.25;;;17.31;84.20
62725;BME280;49026;52.600;4.694;2023-07-29T04:56:48;100587.25;;;17.35;84.00
62725;BME280;49026;52.600;4.694;2023-07-29T04:59:14;100587.75;;;17.40;84.39
62725;BME280;49026;52.600;4.694;2023-07-29T05:01:39;100589.97;;;17.47;84.26
62725;BME280;49026;52.600;4.694;2023-07-29T05:04:04;100586.00;;;17.52;84.25
62725;BME280;49026;52.600;4.694;2023-07-29T05:06:30;100594.63;;;17.56;84.27
62725;BME280;49026;52.600;4.694;2023-07-29T05:08:57;100599.69;;;17.59;84.26
62725;BME280;49026;52.600;4.694;2023-07-29T05:11:23;100598.31;;;17.66;84.07
62725;BME280;49026;52.600;4.694;2023-07-29T05:13:53;100592.50;;;17.72;84.00
62725;BME280;49026;52.600;4.694;2023-07-29T05:16:18;100585.59;;;17.83;84.33
62725;BME280;49026;52.600;4.694;2023-07-29T05:18:43;100588.78;;;17.88;83.93
62725;BME280;49026;52.600;4.694;2023-07-29T05:21:09;100580.78;;;17.88;84.10
62725;BME280;49026;52.600;4.694;2023-07-29T05:23:36;100593.09;;;17.89;84.44
62725;BME280;49026;52.600;4.694;2023-07-29T05:26:06;100583.47;;;17.88;84.33
62725;BME280;49026;52.600;4.694;2023-07-29T05:28:31;100578.22;;;17.86;84.25
62725;BME280;49026;52.600;4.694;2023-07-29T05:31:01;100574.69;;;17.86;84.28
62725;BME280;49026;52.600;4.694;2023-07-29T05:33:28;100584.72;;;17.82;84.24
62725;BME280;49026;52.600;4.694;2023-07-29T05:35:54;100592.78;;;17.81;84.19
62725;BME280;49026;52.600;4.694;2023-07-29T05:38:19;100591.84;;;17.82;84.21
62725;BME280;49026;52.600;4.694;2023-07-29T05:40:45;100588.25;;;17.83;84.26
62725;BME280;49026;52.600;4.694;2023-07-29T05:43:12;100593.28;;;17.86;84.36
62725;BME280;49026;52.600;4.694;2023-07-29T05:45:37;100587.56;;;17.92;84.34
62725;BME280;49026;52.600;4.694;2023-07-29T05:48:05;100587.00;;;18.00;84.59
62725;BME280;49026;52.600;4.694;2023-07-29T05:50:33;100593.44;;;18.08;84.52
62725;BME280;49026;52.600;4.694;2023-07-29T05:52:58;100588.50;;;18.15;84.74
62725;BME280;49026;52.600;4.694;2023-07-29T05:55:23;100586.81;;;18.25;84.62
62725;BME280;49026;52.600;4.694;2023-07-29T05:57:49;100589.00;;;18.31;84.64
62725;BME280;49026;52.600;4.694;2023-07-29T06:00:17;100592.16;;;18.37;84.69
62725;BME280;49026;52.600;4.694;2023-07-29T06:02:43;100590.34;;;18.37;84.47
62725;BME280;49026;52.600;4.694;2023-07-29T06:05:11;100592.41;;;18.33;84.73
62725;BME280;49026;52.600;4.694;2023-07-29T06:07:36;100596.16;;;18.31;84.67
62725;BME280;49026;52.600;4.694;2023-07-29T06:10:02;100587.53;;;18.27;84.67
62725;BME280;49026;52.600;4.694;2023-07-29T06:12:27;100587.41;;;18.29;84.61
62725;BME280;49026;52.600;4.694;2023-07-29T06:14:52;100592.50;;;18.32;84.73
62725;BME280;49026;52.600;4.694;2023-07-29T06:17:18;100590.56;;;18.34;84.69
62725;BME280;49026;52.600;4.694;2023-07-29T06:19:43;100595.91;;;18.34;84.69
62725;BME280;49026;52.600;4.694;2023-07-29T06:22:09;100598.56;;;18.34;84.54
62725;BME280;49026;52.600;4.694;2023-07-29T06:24:35;100601.47;;;18.31;84.53
62725;BME280;49026;52.600;4.694;2023-07-29T06:27:00;100601.72;;;18.28;84.47
62725;BME280;49026;52.600;4.694;2023-07-29T06:29:28;100606.41;;;18.24;84.50
62725;BME280;49026;52.600;4.694;2023-07-29T06:31:55;100607.25;;;18.25;84.47
62725;BME280;49026;52.600;4.694;2023-07-29T06:34:21;100610.41;;;18.30;84.55
62725;BME280;49026;52.600;4.694;2023-07-29T06:36:48;100602.09;;;18.35;84.44
62725;BME280;49026;52.600;4.694;2023-07-29T06:39:14;100608.97;;;18.37;84.50
62725;BME280;49026;52.600;4.694;2023-07-29T06:41:39;100607.78;;;18.41;84.42
62725;BME280;49026;52.600;4.694;2023-07-29T06:44:04;100611.91;;;18.57;84.52
62725;BME280;49026;52.600;4.694;2023-07-29T06:46:30;100595.94;;;18.79;84.38
62725;BME280;49026;52.600;4.694;2023-07-29T06:48:55;100610.63;;;19.07;84.50
62725;BME280;49026;52.600;4.694;2023-07-29T06:51:20;100608.66;;;19.32;84.47
62725;BME280;49026;52.600;4.694;2023-07-29T06:53:46;100603.88;;;19.58;84.82
62725;BME280;49026;52.600;4.694;2023-07-29T06:56:13;100616.69;;;19.76;83.70
62725;BME280;49026;52.600;4.694;2023-07-29T06:58:39;100597.28;;;19.74;83.47
62725;BME280;49026;52.600;4.694;2023-07-29T07:01:04;100599.47;;;19.69;83.15
62725;BME280;49026;52.600;4.694;2023-07-29T07:03:32;100610.97;;;19.69;83.40
62725;BME280;49026;52.600;4.694;2023-07-29T07:05:58;100616.19;;;19.71;83.20
62725;BME280;49026;52.600;4.694;2023-07-29T07:08:24;100603.09;;;19.68;83.38
62725;BME280;49026;52.600;4.694;2023-07-29T07:10:51;100609.59;;;19.54;83.22
62725;BME280;49026;52.600;4.694;2023-07-29T07:13:17;100607.56;;;19.35;83.09
62725;BME280;49026;52.600;4.694;2023-07-29T07:15:42;100598.63;;;19.24;83.27
62725;BME280;49026;52.600;4.694;2023-07-29T07:18:07;100606.63;;;19.24;83.60
62725;BME280;49026;52.600;4.694;2023-07-29T07:20:34;100609.50;;;19.33;83.85
62725;BME280;49026;52.600;4.694;2023-07-29T07:22:59;100610.72;;;19.40;83.60
62725;BME280;49026;52.600;4.694;2023-07-29T07:25:25;100609.69;;;19.52;83.72
62725;BME280;49026;52.600;4.694;2023-07-29T07:27:50;100599.38;;;19.59;83.58
62725;BME280;49026;52.600;4.694;2023-07-29T07:30:15;100609.00;;;19.50;83.03
62725;BME280;49026;52.600;4.694;2023-07-29T07:32:41;100615.53;;;19.46;82.86
62725;BME280;49026;52.600;4.694;2023-07-29T07:35:06;100606.31;;;19.50;82.81
62725;BME280;49026;52.600;4.694;2023-07-29T07:37:32;100606.06;;;19.65;82.99
62725;BME280;49026;52.600;4.694;2023-07-29T07:39:57;100602.16;;;19.80;83.16
62725;BME280;49026;52.600;4.694;2023-07-29T07:42:22;100608.50;;;20.00;82.73
62725;BME280;49026;52.600;4.694;2023-07-29T07:44:48;100602.44;;;20.19;82.75
62725;BME280;49026;52.600;4.694;2023-07-29T07:47:13;100607.06;;;20.38;83.36
62725;BME280;49026;52.600;4.694;2023-07-29T07:49:38;100602.75;;;20.68;82.83
62725;BME280;49026;52.600;4.694;2023-07-29T07:52:04;100607.94;;;20.90;81.71
62725;BME280;49026;52.600;4.694;2023-07-29T07:54:29;100610.59;;;20.90;81.91
62725;BME280;49026;52.600;4.694;2023-07-29T07:56:57;100623.00;;;20.70;81.87
62725;BME280;49026;52.600;4.694;2023-07-29T07:59:24;100625.22;;;20.44;82.16
62725;BME280;49026;52.600;4.694;2023-07-29T08:01:50;100618.56;;;20.17;81.78
62725;BME280;49026;52.600;4.694;2023-07-29T08:04:18;100629.72;;;19.90;81.29
62725;BME280;49026;52.600;4.694;2023-07-29T08:06:46;100624.44;;;19.68;81.30
62725;BME280;49026;52.600;4.694;2023-07-29T08:09:11;100636.09;;;19.55;81.37
62725;BME280;49026;52.600;4.694;2023-07-29T08:11:39;100646.78;;;19.44;81.25
62725;BME280;49026;52.600;4.694;2023-07-29T08:14:04;100638.09;;;19.31;81.13
62725;BME280;49026;52.600;4.694;2023-07-29T08:16:30;100634.97;;;19.03;80.55
62725;BME280;49026;52.600;4.694;2023-07-29T08:18:55;100645.38;;;18.95;81.71
62725;BME280;49026;52.600;4.694;2023-07-29T08:21:24;100631.91;;;19.07;82.06
62725;BME280;49026;52.600;4.694;2023-07-29T08:23:49;100647.44;;;19.25;81.88
62725;BME280;49026;52.600;4.694;2023-07-29T08:26:14;100653.59;;;19.37;81.73
62725;BME280;49026;52.600;4.694;2023-07-29T08:28:42;100642.78;;;19.50;81.70
62725;BME280;49026;52.600;4.694;2023-07-29T08:31:07;100635.38;;;19.65;81.63
62725;BME280;49026;52.600;4.694;2023-07-29T08:33:33;100637.50;;;19.71;81.33
62725;BME280;49026;52.600;4.694;2023-07-29T08:35:59;100639.47;;;19.80;81.63
62725;BME280;49026;52.600;4.694;2023-07-29T08:38:25;100638.44;;;19.92;81.32
62725;BME280;49026;52.600;4.694;2023-07-29T08:46:39;100641.16;;;19.70;79.80
62725;BME280;49026;52.600;4.694;2023-07-29T08:49:04;100641.25;;;19.13;81.02
62725;BME280;49026;52.600;4.694;2023-07-29T08:51:31;100650.56;;;18.85;81.56
62725;BME280;49026;52.600;4.694;2023-07-29T08:53:58;100650.50;;;18.74;81.73
62725;BME280;49026;52.600;4.694;2023-07-29T08:56:26;100651.13;;;18.77;81.89
62725;BME280;49026;52.600;4.694;2023-07-29T08:58:53;100651.28;;;18.87;81.83
62725;BME280;49026;52.600;4.694;2023-07-29T09:01:19;100650.94;;;19.03;82.04
62725;BME280;49026;52.600;4.694;2023-07-29T09:03:44;100648.88;;;19.18;81.92
62725;BME280;49026;52.600;4.694;2023-07-29T09:06:09;100658.44;;;19.32;81.61
62725;BME280;49026;52.600;4.694;2023-07-29T09:08:38;100660.09;;;19.44;81.72
62725;BME280;49026;52.600;4.694;2023-07-29T09:11:04;100658.38;;;19.54;81.69
62725;BME280;49026;52.600;4.694;2023-07-29T09:13:31;100658.25;;;19.56;81.93
62725;BME280;49026;52.600;4.694;2023-07-29T09:15:57;100655.38;;;19.48;81.66
62725;BME280;49026;52.600;4.694;2023-07-29T09:18:25;100675.97;;;19.34;81.28
62725;BME280;49026;52.600;4.694;2023-07-29T09:20:52;100670.56;;;19.24;81.26
62725;BME280;49026;52.600;4.694;2023-07-29T09:23:22;100675.66;;;19.16;80.94
62725;BME280;49026;52.600;4.694;2023-07-29T09:25:48;100676.13;;;19.10;81.03
62725;BME280;49026;52.600;4.694;2023-07-29T09:28:17;100663.63;;;18.99;80.70
62725;BME280;49026;52.600;4.694;2023-07-29T09:30:44;100671.50;;;18.90;81.05
62725;BME280;49026;52.600;4.694;2023-07-29T09:33:12;100673.44;;;18.99;81.40
62725;BME280;49026;52.600;4.694;2023-07-29T09:35:38;100667.66;;;19.16;81.30
62725;BME280;49026;52.600;4.694;2023-07-29T09:38:07;100671.28;;;19.38;81.14
62725;BME280;49026;52.600;4.694;2023-07-29T09:40:39;100660.09;;;19.55;80.65
62725;BME280;49026;52.600;4.694;2023-07-29T09:43:06;100655.72;;;19.77;80.54
62725;BME280;49026;52.600;4.694;2023-07-29T09:45:35;100662.28;;;20.05;80.42
62725;BME280;49026;52.600;4.694;2023-07-29T09:48:02;100663.81;;;20.40;80.18
62725;BME280;49026;52.600;4.694;2023-07-29T09:50:29;100663.25;;;20.79;80.71
62725;BME280;49026;52.600;4.694;2023-07-29T09:52:55;100657.19;;;21.07;80.31
62725;BME280;49026;52.600;4.694;2023-07-29T09:55:23;100662.06;;;21.33;79.81
62725;BME280;49026;52.600;4.694;2023-07-29T09:57:59;100665.97;;;21.60;80.65
62725;BME280;49026;52.600;4.694;2023-07-29T10:00:28;100670.66;;;21.77;78.06
62725;BME280;49026;52.600;4.694;2023-07-29T10:02:57;100661.34;;;21.72;78.33
62725;BME280;49026;52.600;4.694;2023-07-29T10:05:22;100661.06;;;21.75;78.57
62725;BME280;49026;52.600;4.694;2023-07-29T10:07:49;100667.13;;;21.67;77.77
62725;BME280;49026;52.600;4.694;2023-07-29T10:10:15;100671.38;;;21.39;77.48
62725;BME280;49026;52.600;4.694;2023-07-29T10:12:44;100651.47;;;21.12;77.87
62725;BME280;49026;52.600;4.694;2023-07-29T10:15:09;100659.91;;;20.86;79.16
62725;BME280;49026;52.600;4.694;2023-07-29T10:17:37;100659.56;;;20.70;77.92
62725;BME280;49026;52.600;4.694;2023-07-29T10:20:08;100680.09;;;20.37;77.20
62725;BME280;49026;52.600;4.694;2023-07-29T10:25:17;100677.38;;;19.84;77.85
62725;BME280;49026;52.600;4.694;2023-07-29T10:30:20;100680.00;;;19.40;77.75
62725;BME280;49026;52.600;4.694;2023-07-29T10:32:46;100683.59;;;19.39;77.66
62725;BME280;49026;52.600;4.694;2023-07-29T10:35:13;100682.88;;;19.37;77.86
62725;BME280;49026;52.600;4.694;2023-07-29T10:37:39;100683.84;;;19.36;77.97
62725;BME280;49026;52.600;4.694;2023-07-29T10:40:08;100692.72;;;19.36;78.06
62725;BME280;49026;52.600;4.694;2023-07-29T10:42:38;100684.84;;;19.35;78.01
62725;BME280;49026;52.600;4.694;2023-07-29T10:45:17;100698.28;;;19.44;78.46
62725;BME280;49026;52.600;4.694;2023-07-29T10:47:43;100680.03;;;19.72;78.68
62725;BME280;49026;52.600;4.694;2023-07-29T10:50:18;100684.84;;;20.01;78.76
62725;BME280;49026;52.600;4.694;2023-07-29T10:52:46;100686.31;;;20.26;78.82
62725;BME280;49026;52.600;4.694;2023-07-29T10:55:25;100688.72;;;20.29;78.38
62725;BME280;49026;52.600;4.694;2023-07-29T10:57:51;100691.53;;;20.28;78.47
62725;BME280;49026;52.600;4.694;2023-07-29T11:00:19;100684.59;;;20.36;78.30
62725;BME280;49026;52.600;4.694;2023-07-29T11:02:59;100673.50;;;20.62;78.46
62725;BME280;49026;52.600;4.694;2023-07-29T11:05:44;100684.63;;;21.09;78.73
62725;BME280;49026;52.600;4.694;2023-07-29T11:08:29;100680.78;;;21.33;77.55
62725;BME280;49026;52.600;4.694;2023-07-29T11:13:30;100692.38;;;21.13;76.37
62725;BME280;49026;52.600;4.694;2023-07-29T11:15:58;100693.81;;;21.17;77.44
62725;BME280;49026;52.600;4.694;2023-07-29T11:18:28;100689.09;;;21.30;77.41
62725;BME280;49026;52.600;4.694;2023-07-29T11:20:55;100682.06;;;21.39;77.30
62725;BME280;49026;52.600;4.694;2023-07-29T11:23:27;100690.66;;;21.42;75.84
62725;BME280;49026;52.600;4.694;2023-07-29T11:25:53;100688.38;;;21.78;76.74
62725;BME280;49026;52.600;4.694;2023-07-29T11:28:19;100693.81;;;22.37;78.41
62725;BME280;49026;52.600;4.694;2023-07-29T11:30:47;100683.53;;;23.09;78.82
62725;BME280;49026;52.600;4.694;2023-07-29T11:33:12;100682.59;;;23.28;77.64
62725;BME280;49026;52.600;4.694;2023-07-29T11:35:37;100687.13;;;23.27;77.86
62725;BME280;49026;52.600;4.694;2023-07-29T11:38:03;100681.56;;;23.11;77.06
62725;BME280;49026;52.600;4.694;2023-07-29T11:40:29;100692.66;;;23.16;77.61
62725;BME280;49026;52.600;4.694;2023-07-29T11:42:56;100693.66;;;23.15;75.01
62725;BME280;49026;52.600;4.694;2023-07-29T11:45:22;100688.03;;;22.99;75.30
62725;BME280;49026;52.600;4.694;2023-07-29T11:47:48;100695.47;;;22.67;75.41
62725;BME280;49026;52.600;4.694;2023-07-29T11:50:16;100697.16;;;22.58;76.13
62725;BME280;49026;52.600;4.694;2023-07-29T11:52:43;100684.41;;;22.80;75.70
62725;BME280;49026;52.600;4.694;2023-07-29T11:55:09;100700.03;;;22.94;75.06
62725;BME280;49026;52.600;4.694;2023-07-29T11:57:38;100700.16;;;23.12;74.77
62725;BME280;49026;52.600;4.694;2023-07-29T12:00:08;100699.16;;;23.13;73.44
62725;BME280;49026;52.600;4.694;2023-07-29T12:02:37;100699.53;;;23.28;74.35
62725;BME280;49026;52.600;4.694;2023-07-29T12:05:06;100693.81;;;23.41;74.88
62725;BME280;49026;52.600;4.694;2023-07-29T12:07:33;100694.91;;;23.48;74.57
62725;BME280;49026;52.600;4.694;2023-07-29T12:09:58;100698.56;;;23.57;72.37
62725;BME280;49026;52.600;4.694;2023-07-29T12:12:24;100703.59;;;23.60;72.92
62725;BME280;49026;52.600;4.694;2023-07-29T12:14:54;100682.38;;;23.49;71.99
62725;BME280;49026;52.600;4.694;2023-07-29T12:17:20;100689.25;;;23.52;72.23
62725;BME280;49026;52.600;4.694;2023-07-29T12:19:45;100665.81;;;23.54;70.42
62725;BME280;49026;52.600;4.694;2023-07-29T12:22:11;100690.09;;;23.52;71.51
62725;BME280;49026;52.600;4.694;2023-07-29T12:24:40;100686.84;;;23.76;71.12
62725;BME280;49026;52.600;4.694;2023-07-29T12:27:10;100683.00;;;24.07;71.30
62725;BME280;49026;52.600;4.694;2023-07-29T12:29:40;100684.75;;;24.16;70.18
62725;BME280;49026;52.600;4.694;2023-07-29T12:32:07;100665.25;;;24.14;70.16
62725;BME280;49026;52.600;4.694;2023-07-29T12:34:37;100677.31;;;23.92;68.57
62725;BME280;49026;52.600;4.694;2023-07-29T12:37:06;100675.69;;;23.81;68.75
62725;BME280;49026;52.600;4.694;2023-07-29T12:39:52;100687.69;;;24.22;69.47
62725;BME280;49026;52.600;4.694;2023-07-29T12:42:29;100676.38;;;24.55;68.69
62725;BME280;49026;52.600;4.694;2023-07-29T12:45:04;100685.13;;;24.57;69.17
62725;BME280;49026;52.600;4.694;2023-07-29T12:47:29;100685.84;;;24.67;68.59
62725;BME280;49026;52.600;4.694;2023-07-29T12:49:57;100676.28;;;24.91;69.18
62725;BME280;49026;52.600;4.694;2023-07-29T12:52:22;100681.94;;;25.14;69.33
62725;BME280;49026;52.600;4.694;2023-07-29T12:54:47;100685.75;;;25.03;67.73
62725;BME280;49026;52.600;4.694;2023-07-29T12:57:13;100679.66;;;24.93;69.67
62725;BME280;49026;52.600;4.694;2023-07-29T12:59:40;100682.69;;;24.98;69.30
62725;BME280;49026;52.600;4.694;2023-07-29T13:02:06;100676.69;;;25.04;68.17
62725;BME280;49026;52.600;4.694;2023-07-29T13:04:31;100688.28;;;25.31;70.06
62725;BME280;49026;52.600;4.694;2023-07-29T13:06:56;100675.88;;;25.46;70.66
62725;BME280;49026;52.600;4.694;2023-07-29T13:09:24;100693.84;;;25.38;69.23